Time;durP1;ratioP1;P1;durP2;ratioP2;P2;SDS_P1;SDS_P2;PMS_P1;PMS_P2;Temp;Humidity;BMP_temperature;BMP_pressure;BME280_temperature;BME280_humidity;BME280_pressure;Samples;Min_cycle;Max_cycle;Signal;HPM_P1;HPM_P2
2021/07/17 00:01:16;;;;;;;5.97;3.50;;;;;;;16.25;100.00;97107.00;4975470;28;20436;-63
2021/07/17 00:03:42;;;;;;;4.85;2.80;;;;;;;16.31;100.00;97110.94;4980741;28;20045;-63
2021/07/17 00:06:07;;;;;;;6.53;3.40;;;;;;;16.39;100.00;97106.25;4976052;28;20042;-63
2021/07/17 00:08:33;;;;;;;7.65;4.47;;;;;;;16.27;100.00;97098.34;4973046;28;20054;-65
2021/07/17 00:10:58;;;;;;;7.28;4.95;;;;;;;16.19;100.00;97106.63;4981070;28;20057;-63
2021/07/17 00:13:24;;;;;;;6.00;4.15;;;;;;;16.19;100.00;97106.63;4975629;28;20046;-63
2021/07/17 00:15:53;;;;;;;7.03;4.68;;;;;;;16.12;100.00;97103.06;4980988;28;20058;-63
2021/07/17 00:18:19;;;;;;;6.27;4.40;;;;;;;15.99;100.00;97108.16;4975417;28;20042;-63
2021/07/17 00:20:45;;;;;;;5.97;4.70;;;;;;;15.98;100.00;97107.38;4972511;28;20516;-64
2021/07/17 00:23:11;;;;;;;15.23;4.57;;;;;;;16.03;100.00;97107.00;4968046;28;20053;-63
2021/07/17 00:25:37;;;;;;;9.60;4.03;;;;;;;16.16;100.00;97106.63;4980676;28;20042;-64
2021/07/17 00:28:02;;;;;;;12.25;4.97;;;;;;;16.14;100.00;97109.78;4978931;28;20476;-64
2021/07/17 00:30:28;;;;;;;8.43;5.03;;;;;;;15.98;100.00;97110.13;4977988;28;20197;-63
2021/07/17 00:32:53;;;;;;;11.38;5.35;;;;;;;15.95;100.00;97105.38;4980793;28;20391;-64
2021/07/17 00:35:19;;;;;;;9.63;5.80;;;;;;;15.96;100.00;97106.19;4974393;28;20640;-64
2021/07/17 00:37:44;;;;;;;9.18;5.45;;;;;;;15.92;100.00;97113.66;4976327;28;20459;-63
2021/07/17 00:40:12;;;;;;;8.45;5.32;;;;;;;15.88;100.00;97110.13;4970701;28;20046;-63
2021/07/17 00:42:44;;;;;;;7.68;5.18;;;;;;;15.84;100.00;97112.88;4985279;28;20042;-63
2021/07/17 00:45:10;;;;;;;8.50;5.43;;;;;;;15.84;100.00;97101.81;4971275;28;20101;-63
2021/07/17 00:47:37;;;;;;;11.73;6.38;;;;;;;15.89;100.00;97098.69;4980905;28;20100;-63
2021/07/17 00:50:04;;;;;;;8.70;5.85;;;;;;;15.93;100.00;97104.22;4982156;28;20129;-63
2021/07/17 00:52:30;;;;;;;8.30;6.13;;;;;;;15.92;100.00;97099.84;4984083;28;20069;-63
2021/07/17 00:54:57;;;;;;;8.35;5.93;;;;;;;16.11;100.00;97101.47;4983470;28;20507;-63
2021/07/17 00:57:23;;;;;;;11.88;5.60;;;;;;;15.94;100.00;97092.78;4977541;28;20798;-63
2021/07/17 00:59:50;;;;;;;9.82;5.95;;;;;;;16.02;100.00;97104.63;4977702;28;20124;-63
2021/07/17 01:02:19;;;;;;;6.47;5.00;;;;;;;15.99;100.00;97095.16;4976036;28;20038;-64
2021/07/17 01:04:46;;;;;;;9.97;5.57;;;;;;;15.92;100.00;97097.91;4983151;28;20042;-64
2021/07/17 01:07:12;;;;;;;11.15;6.47;;;;;;;15.94;100.00;97092.78;4978862;28;20043;-63
2021/07/17 01:09:38;;;;;;;9.90;6.18;;;;;;;15.94;100.00;97084.50;4983899;28;20104;-65
2021/07/17 01:12:04;;;;;;;9.65;6.47;;;;;;;15.96;100.00;97090.41;4962717;28;20761;-63
2021/07/17 01:14:30;;;;;;;7.20;5.80;;;;;;;16.00;100.00;97087.66;4984006;28;20403;-64
2021/07/17 01:16:55;;;;;;;9.93;6.80;;;;;;;16.01;100.00;97084.50;4985448;28;20050;-64
2021/07/17 01:19:23;;;;;;;9.00;5.93;;;;;;;16.03;100.00;97089.63;4978732;28;20050;-63
2021/07/17 01:21:52;;;;;;;8.02;5.32;;;;;;;15.96;100.00;97084.88;4982455;28;20042;-64
2021/07/17 01:24:18;;;;;;;11.15;5.75;;;;;;;15.94;100.00;97094.75;4976793;28;20042;-64
2021/07/17 01:26:44;;;;;;;8.82;5.40;;;;;;;15.92;100.00;97094.34;4981247;28;20503;-64
2021/07/17 01:29:09;;;;;;;8.05;6.03;;;;;;;15.90;100.00;97082.91;4957732;28;20047;-64
2021/07/17 01:31:35;;;;;;;8.30;5.60;;;;;;;15.90;100.00;97089.22;4983836;28;20534;-64
2021/07/17 01:34:01;;;;;;;6.88;5.10;;;;;;;15.92;100.00;97088.81;4965387;28;20046;-64
2021/07/17 01:36:26;;;;;;;6.60;4.70;;;;;;;16.00;100.00;97098.69;4974002;28;20046;-64
2021/07/17 01:38:51;;;;;;;5.32;3.97;;;;;;;16.10;100.00;97091.59;4992812;28;20104;-64
2021/07/17 01:41:17;;;;;;;7.85;4.35;;;;;;;16.21;100.00;97090.44;4995247;28;20045;-64
2021/07/17 01:43:43;;;;;;;11.63;5.63;;;;;;;16.30;100.00;97092.81;5032187;22;20060;-63
2021/07/17 01:46:09;;;;;;;6.45;3.90;;;;;;;16.39;100.00;97092.41;5016867;28;20033;-62
2021/07/17 01:48:34;;;;;;;7.78;4.53;;;;;;;16.42;100.00;97092.41;5033582;28;20637;-63
2021/07/17 01:51:00;;;;;;;9.63;3.90;;;;;;;16.45;100.00;97093.59;5037873;28;20036;-63
2021/07/17 01:53:25;;;;;;;5.70;3.70;;;;;;;16.48;100.00;97080.97;5037000;28;20088;-64
2021/07/17 01:55:50;;;;;;;10.63;4.15;;;;;;;16.50;100.00;97073.84;5042905;28;20473;-63
2021/07/17 01:58:16;;;;;;;6.70;3.78;;;;;;;16.50;100.00;97078.59;5036882;28;20069;-64
2021/07/17 02:00:41;;;;;;;7.35;3.72;;;;;;;16.50;100.00;97081.34;5042264;28;20679;-64
2021/07/17 02:03:07;;;;;;;5.07;3.42;;;;;;;16.43;100.00;97082.13;5035982;28;20041;-63
2021/07/17 02:05:34;;;;;;;6.78;3.78;;;;;;;16.44;100.00;97076.22;5038555;28;20048;-64
2021/07/17 02:08:00;;;;;;;6.32;3.85;;;;;;;16.40;100.00;97064.38;5041709;28;20102;-62
2021/07/17 02:10:33;;;;;;;4.88;3.47;;;;;;;16.35;100.00;97073.06;5034477;28;20048;-63
2021/07/17 02:13:09;;;;;;;5.07;3.53;;;;;;;16.39;100.00;97078.59;5041246;28;20041;-65
2021/07/17 02:15:45;;;;;;;13.25;3.70;;;;;;;16.33;100.00;97069.09;5021378;28;20379;-63
2021/07/17 02:18:12;;;;;;;6.03;3.30;;;;;;;16.32;100.00;97078.59;5015593;28;20188;-63
2021/07/17 02:20:39;;;;;;;8.00;3.92;;;;;;;16.36;100.00;97080.16;5018292;28;20037;-63
2021/07/17 02:23:04;;;;;;;7.95;3.28;;;;;;;16.36;100.00;97079.38;5032088;28;20037;-62
2021/07/17 02:25:30;;;;;;;6.80;4.35;;;;;;;16.28;100.00;97081.34;5018912;28;20041;-64
2021/07/17 02:27:56;;;;;;;7.63;4.00;;;;;;;16.27;100.00;97087.28;5019578;28;20187;-68
2021/07/17 02:30:22;;;;;;;6.93;4.25;;;;;;;16.24;100.00;97080.56;5009912;28;20645;-63
2021/07/17 02:32:48;;;;;;;8.05;3.47;;;;;;;16.26;100.00;97083.72;5017768;28;20045;-64
2021/07/17 02:35:13;;;;;;;6.72;3.53;;;;;;;16.30;100.00;97076.22;5012632;28;20104;-63
2021/07/17 02:37:39;;;;;;;4.63;3.75;;;;;;;16.38;100.00;97082.53;5019492;28;20037;-63
2021/07/17 02:40:05;;;;;;;9.07;4.07;;;;;;;16.43;100.00;97085.69;5030166;28;20047;-62
2021/07/17 02:42:33;;;;;;;5.93;3.83;;;;;;;16.41;100.00;97082.53;5037318;28;20396;-64
2021/07/17 02:44:58;;;;;;;7.97;4.15;;;;;;;16.49;100.00;97088.06;5031792;28;20076;-64
2021/07/17 02:47:24;;;;;;;5.28;3.70;;;;;;;16.57;100.00;97089.63;5028147;28;20375;-63
2021/07/17 02:49:49;;;;;;;9.23;3.85;;;;;;;16.30;100.00;97084.50;5033773;28;20041;-63
2021/07/17 02:52:15;;;;;;;9.90;4.32;;;;;;;16.11;100.00;97088.44;5031022;28;20043;-63
2021/07/17 02:54:40;;;;;;;11.23;4.43;;;;;;;16.01;100.00;97087.25;5032701;28;20486;-63
2021/07/17 02:57:05;;;;;;;8.32;5.07;;;;;;;16.06;100.00;97083.31;5033365;28;20040;-63
2021/07/17 02:59:31;;;;;;;13.13;4.20;;;;;;;16.05;100.00;97092.78;5030375;28;20060;-63
2021/07/17 03:01:56;;;;;;;8.68;5.05;;;;;;;16.05;100.00;97082.53;5025947;28;20049;-63
2021/07/17 03:04:22;;;;;;;9.93;5.30;;;;;;;16.00;100.00;97076.59;5025317;28;20607;-62
2021/07/17 03:06:47;;;;;;;7.22;4.75;;;;;;;15.99;100.00;97073.06;5040035;28;20099;-63
2021/07/17 03:09:13;;;;;;;8.70;4.78;;;;;;;16.11;100.00;97071.88;5026516;28;20046;-63
2021/07/17 03:11:38;;;;;;;8.05;4.57;;;;;;;16.20;100.00;97079.75;5048901;28;20135;-63
2021/07/17 03:14:04;;;;;;;11.93;5.10;;;;;;;16.32;100.00;97068.31;5045112;28;20053;-62
2021/07/17 03:16:31;;;;;;;10.98;4.55;;;;;;;16.38;100.00;97072.25;5037517;28;20136;-62
2021/07/17 03:18:59;;;;;;;9.27;4.28;;;;;;;16.45;100.00;97077.00;5032639;28;20049;-62
2021/07/17 03:21:26;;;;;;;13.57;5.35;;;;;;;16.42;100.00;97080.53;5033717;28;20044;-63
2021/07/17 03:23:51;;;;;;;12.68;5.43;;;;;;;16.25;100.00;97080.16;5024534;28;20404;-62
2021/07/17 03:26:16;;;;;;;8.95;5.20;;;;;;;16.21;100.00;97073.06;5029003;28;20037;-63
2021/07/17 03:28:42;;;;;;;9.60;4.85;;;;;;;16.18;100.00;97074.63;5040107;28;20141;-63
2021/07/17 03:31:08;;;;;;;9.00;5.60;;;;;;;16.06;100.00;97069.50;5033378;28;20044;-63
2021/07/17 03:33:34;;;;;;;13.95;5.68;;;;;;;15.98;100.00;97071.47;5038018;28;20037;-63
2021/07/17 03:35:59;;;;;;;18.77;6.95;;;;;;;16.03;100.00;97071.06;5040919;28;20045;-63
2021/07/17 03:38:25;;;;;;;13.82;6.07;;;;;;;16.09;100.00;97082.53;5034290;28;20045;-63
2021/07/17 03:40:50;;;;;;;14.23;6.88;;;;;;;15.92;100.00;97077.75;5027067;28;20132;-62
2021/07/17 03:43:16;;;;;;;23.90;7.97;;;;;;;15.84;100.00;97080.50;5029349;28;20140;-63
2021/07/17 03:45:42;;;;;;;12.30;6.85;;;;;;;15.88;100.00;97083.28;5032107;28;20966;-64
2021/07/17 03:48:08;;;;;;;11.30;6.60;;;;;;;15.89;100.00;97084.09;5032357;28;20056;-65
2021/07/17 03:50:33;;;;;;;17.70;7.70;;;;;;;15.83;100.00;97084.47;5040432;28;20064;-64
2021/07/17 03:52:59;;;;;;;15.75;7.68;;;;;;;15.86;100.00;97085.66;5037197;28;20064;-65
2021/07/17 03:55:24;;;;;;;14.38;7.60;;;;;;;15.99;100.00;97083.28;5034237;28;20497;-65
2021/07/17 03:57:50;;;;;;;11.20;6.35;;;;;;;16.17;100.00;97091.59;5034633;28;20433;-65
2021/07/17 04:00:16;;;;;;;11.93;7.25;;;;;;;16.02;100.00;97096.34;5024059;28;20036;-64
2021/07/17 04:02:43;;;;;;;11.15;6.60;;;;;;;16.07;100.00;97093.19;5039972;28;20037;-65
2021/07/17 04:05:10;;;;;;;11.98;6.00;;;;;;;16.21;100.00;97084.91;5035031;28;20033;-65
2021/07/17 04:07:35;;;;;;;10.57;5.80;;;;;;;16.31;100.00;97086.06;5038786;28;20541;-64
2021/07/17 04:10:03;;;;;;;10.20;6.00;;;;;;;16.48;100.00;97078.19;5033381;28;20128;-65
2021/07/17 04:12:29;;;;;;;7.57;5.15;;;;;;;16.46;100.00;97083.31;5022671;28;20056;-65
2021/07/17 04:14:54;;;;;;;9.35;5.55;;;;;;;16.55;100.00;97078.97;5027337;28;20057;-63
2021/07/17 04:17:19;;;;;;;9.82;5.38;;;;;;;16.57;100.00;97092.41;5013360;28;20041;-65
2021/07/17 04:19:45;;;;;;;11.07;5.40;;;;;;;16.58;100.00;97091.19;5023938;28;20055;-65
2021/07/17 04:22:10;;;;;;;9.57;4.88;;;;;;;16.59;100.00;97093.56;5030772;28;20057;-64
2021/07/17 04:24:36;;;;;;;11.43;5.57;;;;;;;16.68;100.00;97089.63;5036070;28;20459;-65
2021/07/17 04:27:01;;;;;;;12.57;6.15;;;;;;;16.68;100.00;97086.84;5028652;28;20098;-64
2021/07/17 04:29:27;;;;;;;11.10;5.90;;;;;;;16.75;100.00;97100.69;5029664;28;20055;-63
2021/07/17 04:31:52;;;;;;;10.65;7.45;;;;;;;16.74;100.00;97096.31;5033592;28;20051;-64
2021/07/17 04:34:17;;;;;;;10.50;6.20;;;;;;;16.65;100.00;97104.25;5025604;28;20049;-64
2021/07/17 04:36:43;;;;;;;12.13;6.40;;;;;;;16.51;100.00;97105.84;5039121;28;20086;-64
2021/07/17 04:39:08;;;;;;;10.57;6.30;;;;;;;16.53;100.00;97106.22;5026347;28;20037;-64
2021/07/17 04:41:34;;;;;;;12.43;6.28;;;;;;;16.57;100.00;97103.47;5039446;28;20041;-64
2021/07/17 04:43:59;;;;;;;8.25;6.70;;;;;;;16.55;100.00;97111.38;5025161;28;20140;-64
2021/07/17 04:46:25;;;;;;;9.65;6.07;;;;;;;16.63;100.00;97116.47;5013108;28;20044;-64
2021/07/17 04:48:50;;;;;;;17.23;7.80;;;;;;;16.59;100.00;97107.41;5018172;28;20045;-64
2021/07/17 04:51:16;;;;;;;14.93;7.93;;;;;;;16.60;100.00;97106.22;5019339;28;20160;-63
2021/07/17 04:53:42;;;;;;;8.13;6.35;;;;;;;16.67;100.00;97097.09;5037928;28;20041;-63
2021/07/17 04:56:07;;;;;;;9.95;7.28;;;;;;;16.77;100.00;97103.84;5018758;28;20103;-64
2021/07/17 04:58:33;;;;;;;15.18;6.93;;;;;;;16.93;100.00;97107.00;5036904;28;20052;-63
2021/07/17 05:00:58;;;;;;;11.77;6.85;;;;;;;17.07;100.00;97103.41;5038184;28;20460;-63
2021/07/17 05:03:24;;;;;;;11.48;7.10;;;;;;;17.08;100.00;97104.97;5034341;28;20486;-63
2021/07/17 05:05:50;;;;;;;10.07;6.50;;;;;;;17.11;100.00;97106.16;5055237;28;20033;-64
2021/07/17 05:08:16;;;;;;;11.38;6.50;;;;;;;17.24;100.00;97112.03;5032390;28;20076;-63
2021/07/17 05:10:41;;;;;;;10.90;6.88;;;;;;;17.34;100.00;97109.25;5026847;28;20061;-64
2021/07/17 05:13:12;;;;;;;12.20;7.28;;;;;;;17.27;100.00;97109.25;5020627;28;20041;-63
2021/07/17 05:15:37;;;;;;;8.23;6.15;;;;;;;17.31;100.00;97112.03;5028062;28;20053;-63
2021/07/17 05:18:03;;;;;;;8.95;6.70;;;;;;;17.35;100.00;97108.03;5036366;28;20045;-62
2021/07/17 05:20:29;;;;;;;10.38;5.60;;;;;;;17.39;100.00;97116.31;5017029;28;20042;-64
2021/07/17 05:22:54;;;;;;;7.22;5.65;;;;;;;17.49;100.00;97109.19;5027311;28;20447;-63
2021/07/17 05:25:19;;;;;;;12.43;6.07;;;;;;;17.63;100.00;97108.31;5016979;28;20072;-64
2021/07/17 05:27:45;;;;;;;7.00;5.65;;;;;;;17.78;100.00;97116.13;5029022;28;20509;-64
2021/07/17 05:30:10;;;;;;;13.27;6.03;;;;;;;17.90;100.00;97116.91;5035982;28;20044;-65
2021/07/17 05:32:36;;;;;;;9.43;6.00;;;;;;;17.96;100.00;97102.22;5034240;28;20041;-65
2021/07/17 05:35:02;;;;;;;9.70;5.68;;;;;;;18.19;100.00;97105.66;5032457;28;20045;-64
2021/07/17 05:37:27;;;;;;;7.28;5.95;;;;;;;18.50;97.96;97101.03;5035061;28;20401;-65
2021/07/17 05:39:53;;;;;;;11.45;6.47;;;;;;;18.67;95.86;97102.06;5037430;28;20041;-64
2021/07/17 05:42:18;;;;;;;8.75;5.47;;;;;;;18.73;95.48;97103.22;5015329;28;20057;-62
2021/07/17 05:44:44;;;;;;;6.95;5.45;;;;;;;18.82;94.57;97109.09;5022455;28;20049;-65
2021/07/17 05:47:09;;;;;;;9.13;5.80;;;;;;;18.86;93.83;97107.06;5021560;28;20037;-65
2021/07/17 05:49:35;;;;;;;10.98;6.03;;;;;;;18.84;93.42;97105.91;5034777;28;20037;-65
2021/07/17 05:52:00;;;;;;;10.57;5.68;;;;;;;18.58;94.29;97110.84;5041132;28;20228;-65
2021/07/17 05:54:25;;;;;;;8.15;6.78;;;;;;;18.24;96.43;97111.53;5030976;28;20052;-65
2021/07/17 05:56:51;;;;;;;9.85;6.43;;;;;;;18.21;96.81;97123.44;5023598;28;20069;-64
2021/07/17 05:59:16;;;;;;;9.43;6.65;;;;;;;18.32;97.20;97112.25;5030969;28;20048;-65
2021/07/17 06:01:41;;;;;;;11.75;6.10;;;;;;;18.41;97.00;97107.03;5044908;28;20086;-65
2021/07/17 06:04:08;;;;;;;13.63;8.05;;;;;;;18.41;96.42;97114.56;5034562;28;20045;-64
2021/07/17 06:06:33;;;;;;;12.20;7.82;;;;;;;18.30;96.56;97111.88;5050379;28;20072;-64
2021/07/17 06:08:59;;;;;;;11.57;7.95;;;;;;;18.33;97.04;97119.41;5038875;28;20045;-64
2021/07/17 06:11:24;;;;;;;10.77;7.55;;;;;;;18.47;96.86;97124.03;5026071;28;20049;-65
2021/07/17 06:13:49;;;;;;;13.18;7.60;;;;;;;18.52;96.81;97120.81;5035594;28;20057;-64
2021/07/17 06:16:15;;;;;;;12.15;8.32;;;;;;;18.29;98.02;97122.19;5022709;28;20131;-65
2021/07/17 06:18:40;;;;;;;13.73;7.95;;;;;;;18.43;97.79;97132.38;5037165;28;20038;-64
2021/07/17 06:21:06;;;;;;;11.35;8.48;;;;;;;18.42;97.46;97130.81;5018290;28;20045;-64
2021/07/17 06:23:31;;;;;;;12.02;8.10;;;;;;;18.48;97.41;97129.16;5038419;28;20053;-63
2021/07/17 06:25:57;;;;;;;17.40;11.05;;;;;;;18.53;97.14;97127.97;5024858;28;20722;-63
2021/07/17 06:28:22;;;;;;;18.67;9.27;;;;;;;18.60;96.27;97135.41;5019174;28;20130;-63
2021/07/17 06:30:48;;;;;;;15.55;9.68;;;;;;;18.76;95.16;97132.09;5041790;28;20044;-64
2021/07/17 06:33:13;;;;;;;16.13;9.38;;;;;;;18.72;94.97;97121.81;5031445;28;20059;-63
2021/07/17 06:35:39;;;;;;;17.92;10.68;;;;;;;18.49;95.89;97133.53;5040448;28;20498;-63
2021/07/17 06:38:04;;;;;;;16.60;10.63;;;;;;;18.21;97.66;97144.84;5034005;28;20110;-61
2021/07/17 06:40:29;;;;;;;18.42;11.13;;;;;;;17.78;99.21;97137.53;5033758;28;20436;-62
2021/07/17 06:42:55;;;;;;;19.52;13.02;;;;;;;17.64;100.00;97140.38;5029125;28;20041;-63
2021/07/17 06:45:21;;;;;;;21.90;13.13;;;;;;;17.70;100.00;97135.97;5031838;28;20040;-62
2021/07/17 06:47:48;;;;;;;22.58;14.00;;;;;;;17.77;100.00;97138.69;5029093;28;20054;-62
2021/07/17 06:50:15;;;;;;;20.30;11.50;;;;;;;18.11;98.58;97146.47;5030627;28;20127;-63
2021/07/17 06:52:40;;;;;;;19.88;11.52;;;;;;;18.22;96.37;97151.94;5031441;28;20063;-63
2021/07/17 06:55:07;;;;;;;17.40;11.20;;;;;;;18.24;96.79;97144.00;5035473;28;20041;-63
2021/07/17 06:57:37;;;;;;;20.08;11.10;;;;;;;18.56;95.72;97140.22;5036402;28;20093;-63
2021/07/17 07:00:08;;;;;;;19.90;10.65;;;;;;;18.87;93.30;97146.69;5034107;28;20062;-63
2021/07/17 07:02:34;;;;;;;19.77;11.27;;;;;;;19.11;89.90;97147.66;5037233;28;20041;-64
2021/07/17 07:05:00;;;;;;;18.48;11.30;;;;;;;19.23;89.35;97151.88;5031571;28;20044;-64
2021/07/17 07:07:25;;;;;;;19.95;11.02;;;;;;;19.42;88.56;97150.50;5019195;28;20045;-64
2021/07/17 07:09:51;;;;;;;23.58;11.50;;;;;;;19.48;87.65;97149.63;5030274;28;20501;-64
2021/07/17 07:12:16;;;;;;;15.65;10.20;;;;;;;19.56;87.26;97155.88;5025059;28;20155;-62
2021/07/17 07:14:42;;;;;;;16.55;9.38;;;;;;;19.74;86.96;97158.47;5037706;28;20494;-63
2021/07/17 07:17:07;;;;;;;16.52;10.20;;;;;;;19.83;86.45;97155.97;5033339;28;20118;-63
2021/07/17 07:19:33;;;;;;;15.68;9.65;;;;;;;19.34;88.76;97154.53;5032361;28;20045;-63
2021/07/17 07:21:58;;;;;;;16.73;10.48;;;;;;;19.45;89.33;97161.56;5037422;28;20037;-64
2021/07/17 07:24:24;;;;;;;15.65;9.63;;;;;;;19.73;87.37;97167.19;5017648;28;20482;-65
2021/07/17 07:26:49;;;;;;;12.98;8.10;;;;;;;19.89;85.92;97167.41;5023400;28;20049;-63
2021/07/17 07:29:14;;;;;;;14.30;9.43;;;;;;;19.98;85.69;97169.69;5029341;28;20043;-64
2021/07/17 07:31:40;;;;;;;14.25;9.70;;;;;;;19.80;86.29;97176.25;5040271;28;20131;-63
2021/07/17 07:34:05;;;;;;;14.55;9.70;;;;;;;19.65;86.36;97174.84;5024616;28;20072;-62
2021/07/17 07:36:30;;;;;;;13.88;8.88;;;;;;;19.54;86.91;97174.19;5037937;28;20041;-64
2021/07/17 07:38:56;;;;;;;16.42;9.80;;;;;;;19.28;88.47;97176.44;5034375;28;20102;-64
2021/07/17 07:41:21;;;;;;;17.33;8.73;;;;;;;19.12;89.03;97176.97;5023019;28;20275;-65
2021/07/17 07:43:47;;;;;;;14.10;8.68;;;;;;;19.33;88.17;97175.97;5036376;28;20533;-65
2021/07/17 07:46:14;;;;;;;16.83;9.45;;;;;;;19.47;87.42;97175.81;5016433;28;20048;-64
2021/07/17 07:48:41;;;;;;;15.27;8.25;;;;;;;19.72;86.30;97171.19;5031899;28;20037;-65
2021/07/17 07:51:07;;;;;;;13.80;9.57;;;;;;;20.18;83.56;97176.13;5034158;28;20506;-63
2021/07/17 07:53:33;;;;;;;14.00;8.35;;;;;;;20.58;80.98;97181.94;5032292;28;20049;-63
2021/07/17 07:56:00;;;;;;;14.52;8.65;;;;;;;20.66;80.43;97185.41;5033414;28;20121;-65
2021/07/17 07:58:25;;;;;;;15.00;9.57;;;;;;;20.61;80.99;97183.09;5032400;28;20041;-63
2021/07/17 08:00:50;;;;;;;16.40;9.40;;;;;;;20.44;81.02;97176.59;5023164;28;20524;-64
2021/07/17 08:03:16;;;;;;;15.70;8.98;;;;;;;20.30;82.02;97177.56;5023410;28;20047;-62
2021/07/17 08:05:41;;;;;;;17.08;9.15;;;;;;;20.23;82.61;97172.91;5037820;28;20037;-64
2021/07/17 08:08:07;;;;;;;17.23;9.25;;;;;;;20.39;81.71;97177.06;5031288;28;20391;-63
2021/07/17 08:10:32;;;;;;;17.70;9.32;;;;;;;20.36;81.38;97175.88;5031242;28;20386;-64
2021/07/17 08:12:58;;;;;;;15.52;8.40;;;;;;;20.35;81.12;97182.66;5031631;28;20137;-64
2021/07/17 08:15:23;;;;;;;15.13;8.57;;;;;;;20.07;81.99;97180.28;5033584;28;20522;-64
2021/07/17 08:17:48;;;;;;;17.17;8.52;;;;;;;19.99;82.45;97188.72;5039523;28;20120;-64
2021/07/17 08:20:14;;;;;;;14.85;9.50;;;;;;;18.97;87.55;97193.00;5033466;28;20382;-64
2021/07/17 08:22:40;;;;;;;16.05;9.30;;;;;;;18.95;89.22;97183.50;5032651;28;20558;-63
2021/07/17 08:25:07;;;;;;;15.63;8.82;;;;;;;19.40;87.53;97198.13;5033870;28;20393;-64
2021/07/17 08:27:33;;;;;;;16.40;9.18;;;;;;;19.93;84.96;97200.72;5031140;28;20052;-64
2021/07/17 08:29:58;;;;;;;14.95;8.50;;;;;;;20.16;82.21;97192.47;5038279;28;20037;-65
2021/07/17 08:32:24;;;;;;;13.43;8.02;;;;;;;20.40;80.08;97196.13;5031834;28;20072;-65
2021/07/17 08:34:52;;;;;;;12.93;8.63;;;;;;;20.48;80.10;97207.91;5030690;28;20048;-65
2021/07/17 08:37:18;;;;;;;10.82;7.80;;;;;;;20.51;80.97;97206.28;5030786;28;20052;-62
2021/07/17 08:39:43;;;;;;;18.10;10.65;;;;;;;19.62;82.63;97206.22;5030364;28;20037;-64
2021/07/17 08:42:09;;;;;;;13.68;8.80;;;;;;;19.10;86.74;97205.19;5034530;28;20091;-64
2021/07/17 08:44:37;;;;;;;12.52;7.47;;;;;;;19.82;83.75;97203.63;5035723;28;20124;-64
2021/07/17 08:47:04;;;;;;;11.40;7.35;;;;;;;20.49;81.04;97203.13;5036711;28;20051;-62
2021/07/17 08:49:30;;;;;;;12.05;7.85;;;;;;;20.40;78.75;97201.69;5036135;28;20053;-64
2021/07/17 08:51:56;;;;;;;11.80;7.03;;;;;;;20.78;78.61;97203.53;5039082;28;20587;-64
2021/07/17 08:54:22;;;;;;;10.32;6.57;;;;;;;21.26;77.69;97207.06;5024329;28;20060;-64
2021/07/17 08:56:49;;;;;;;9.70;6.72;;;;;;;20.77;76.99;97199.16;5034039;28;20050;-64
2021/07/17 08:59:14;;;;;;;8.65;6.40;;;;;;;20.99;76.78;97200.38;5032867;28;20079;-64
2021/07/17 09:01:40;;;;;;;9.80;6.07;;;;;;;21.75;75.03;97199.81;5034075;28;20072;-64
2021/07/17 09:04:07;;;;;;;9.23;5.80;;;;;;;21.87;73.92;97211.50;5028587;28;20102;-64
2021/07/17 09:06:33;;;;;;;11.55;6.13;;;;;;;21.66;73.06;97198.78;5041516;28;20571;-64
2021/07/17 09:08:59;;;;;;;8.70;6.40;;;;;;;20.87;77.96;97200.97;5033769;28;20045;-64
2021/07/17 09:11:35;;;;;;;11.57;6.25;;;;;;;20.80;78.19;97201.88;5035109;28;20044;-63
2021/07/17 09:14:01;;;;;;;8.57;6.13;;;;;;;21.35;76.11;97196.16;5039181;28;20055;-64
2021/07/17 09:16:30;;;;;;;8.65;5.75;;;;;;;21.80;73.67;97201.28;5026302;28;20045;-64
2021/07/17 09:18:56;;;;;;;9.05;6.00;;;;;;;22.41;71.17;97196.44;5043347;28;20041;-64
2021/07/17 09:21:27;;;;;;;7.18;5.28;;;;;;;23.04;67.86;97186.94;5035052;28;20522;-65
2021/07/17 09:23:56;;;;;;;8.18;5.10;;;;;;;23.37;66.12;97192.50;5036345;28;20510;-65
2021/07/17 09:26:32;;;;;;;15.55;5.70;;;;;;;23.15;66.75;97186.69;5035036;28;20276;-64
2021/07/17 09:29:10;;;;;;;8.85;5.75;;;;;;;22.36;68.35;97186.56;5033607;28;20072;-64
2021/07/17 09:31:52;;;;;;;9.80;6.15;;;;;;;21.46;72.68;97191.19;5042481;28;20052;-65
2021/07/17 09:34:22;;;;;;;10.57;5.78;;;;;;;21.56;71.55;97186.66;5036945;28;20041;-65
2021/07/17 09:36:56;;;;;;;7.72;5.93;;;;;;;20.73;76.38;97190.84;5037231;28;20068;-65
2021/07/17 09:39:45;;;;;;;9.00;6.07;;;;;;;21.13;74.29;97190.97;5037580;28;20192;-65
2021/07/17 09:42:17;;;;;;;8.23;6.22;;;;;;;20.81;75.88;97180.38;5030069;28;20033;-65
2021/07/17 09:44:43;;;;;;;9.75;5.72;;;;;;;20.52;78.02;97186.38;5034010;28;20052;-66
2021/07/17 09:47:16;;;;;;;8.10;5.18;;;;;;;21.36;76.18;97183.81;5036663;28;20494;-64
2021/07/17 09:49:42;;;;;;;7.75;4.70;;;;;;;22.25;71.77;97172.06;5028246;28;20037;-64
2021/07/17 09:52:13;;;;;;;7.35;5.18;;;;;;;22.54;68.58;97183.38;5029983;28;20041;-64
2021/07/17 09:54:40;;;;;;;6.80;4.60;;;;;;;22.42;68.79;97182.06;5022140;28;20057;-65
2021/07/17 09:57:07;;;;;;;6.38;4.82;;;;;;;22.47;67.77;97189.13;5032655;28;20037;-64
2021/07/17 09:59:33;;;;;;;6.72;5.00;;;;;;;22.84;67.71;97182.25;5038610;28;20044;-65
2021/07/17 10:01:58;;;;;;;6.30;4.13;;;;;;;22.71;67.43;97178.59;5036208;28;20102;-65
2021/07/17 10:04:24;;;;;;;6.68;4.85;;;;;;;22.77;66.99;97178.84;5016634;28;20052;-65
2021/07/17 10:06:58;;;;;;;6.85;4.55;;;;;;;22.95;65.37;97172.81;5022611;28;20075;-64
2021/07/17 10:09:26;;;;;;;6.22;4.30;;;;;;;23.07;64.55;97178.50;5018207;28;20781;-63
2021/07/17 10:12:06;;;;;;;6.20;4.05;;;;;;;22.57;67.79;97181.72;5023848;28;20036;-65
2021/07/17 10:14:35;;;;;;;7.80;4.53;;;;;;;21.21;72.43;97172.13;5033265;28;20053;-64
2021/07/17 10:17:04;;;;;;;5.70;4.32;;;;;;;20.90;73.13;97168.72;5033737;28;20136;-64
2021/07/17 10:19:29;;;;;;;13.23;5.60;;;;;;;20.24;76.63;97168.91;5038888;28;20397;-64
2021/07/17 10:21:55;;;;;;;7.93;4.60;;;;;;;20.15;77.79;97170.63;5036128;28;20037;-65
2021/07/17 10:24:22;;;;;;;5.82;4.10;;;;;;;21.10;74.88;97177.88;5027731;28;20041;-64
2021/07/17 10:26:49;;;;;;;9.20;4.47;;;;;;;21.86;70.57;97176.47;5030047;28;20054;-64
2021/07/17 10:29:17;;;;;;;6.13;4.15;;;;;;;21.96;70.14;97172.69;5027037;28;20133;-64
2021/07/17 10:31:43;;;;;;;5.32;3.78;;;;;;;22.59;68.59;97166.09;5031761;28;20510;-65
2021/07/17 10:34:09;;;;;;;7.28;3.60;;;;;;;22.66;67.27;97170.75;5027071;28;20532;-65
2021/07/17 10:36:43;;;;;;;6.30;4.22;;;;;;;23.01;64.87;97174.66;5039986;28;20041;-65
2021/07/17 10:39:10;;;;;;;5.32;3.75;;;;;;;22.23;67.29;97174.50;5026813;28;20124;-65
2021/07/17 10:41:38;;;;;;;14.55;4.20;;;;;;;21.89;69.98;97173.59;5041017;28;20048;-65
2021/07/17 10:44:04;;;;;;;6.50;4.75;;;;;;;21.48;69.81;97177.66;5034885;28;20041;-65
2021/07/17 10:46:32;;;;;;;5.55;3.97;;;;;;;20.96;73.43;97167.81;5036820;28;20048;-65
2021/07/17 10:49:00;;;;;;;6.30;4.78;;;;;;;20.44;75.48;97171.78;5031229;28;20521;-64
2021/07/17 10:51:26;;;;;;;6.50;4.53;;;;;;;20.56;75.43;97173.22;5026276;28;20099;-64
2021/07/17 10:53:54;;;;;;;6.38;4.70;;;;;;;20.68;76.11;97171.06;5031335;28;20041;-65
2021/07/17 10:56:28;;;;;;;12.95;4.82;;;;;;;21.05;74.13;97167.25;5026977;28;20104;-65
2021/07/17 10:58:54;;;;;;;6.32;4.57;;;;;;;21.06;74.31;97179.19;5035309;28;20585;-65
2021/07/17 11:01:20;;;;;;;7.22;4.75;;;;;;;21.14;74.38;97177.81;5032304;28;20037;-63
2021/07/17 11:03:46;;;;;;;6.47;4.43;;;;;;;21.09;71.84;97178.34;5035812;28;20061;-66
2021/07/17 11:06:28;;;;;;;7.78;4.47;;;;;;;21.44;73.59;97176.88;5029249;28;20616;-65
2021/07/17 11:08:55;;;;;;;8.60;4.88;;;;;;;21.54;71.45;97169.56;5032817;28;20040;-64
2021/07/17 11:11:37;;;;;;;6.80;4.55;;;;;;;22.38;70.92;97166.59;5035250;28;20735;-64
2021/07/17 11:14:05;;;;;;;6.85;4.95;;;;;;;23.32;66.10;97156.72;5036579;28;20090;-63
2021/07/17 11:16:46;;;;;;;6.68;3.95;;;;;;;23.72;64.55;97156.41;5035391;28;20499;-64
2021/07/17 11:19:15;;;;;;;7.80;3.78;;;;;;;24.43;60.46;97157.09;5024121;28;20045;-64
2021/07/17 11:21:41;;;;;;;5.80;4.30;;;;;;;24.96;59.47;97159.38;5026673;28;20068;-64